sensor_id;sensor_type;location;lat;lon;timestamp;P1;durP1;ratioP1;P2;durP2;ratioP2
4957;SDS011;2494;51.872;9.688;2024-02-26T00:00:19;1.93;;;1.10;;
4957;SDS011;2494;51.872;9.688;2024-02-26T00:03:04;1.93;;;1.10;;
4957;SDS011;2494;51.872;9.688;2024-02-26T00:05:49;1.50;;;1.40;;
4957;SDS011;2494;51.872;9.688;2024-02-26T00:08:34;1.70;;;1.30;;
4957;SDS011;2494;51.872;9.688;2024-02-26T00:11:20;1.40;;;1.17;;
4957;SDS011;2494;51.872;9.688;2024-02-26T00:14:05;1.33;;;1.23;;
4957;SDS011;2494;51.872;9.688;2024-02-26T00:16:50;1.27;;;1.17;;
4957;SDS011;2494;51.872;9.688;2024-02-26T00:19:35;3.40;;;1.20;;
4957;SDS011;2494;51.872;9.688;2024-02-26T00:22:21;1.40;;;1.30;;
4957;SDS011;2494;51.872;9.688;2024-02-26T00:25:06;1.17;;;1.07;;
4957;SDS011;2494;51.872;9.688;2024-02-26T00:27:53;1.30;;;1.20;;
4957;SDS011;2494;51.872;9.688;2024-02-26T00:30:38;1.40;;;1.30;;
4957;SDS011;2494;51.872;9.688;2024-02-26T00:33:23;1.40;;;1.30;;
4957;SDS011;2494;51.872;9.688;2024-02-26T00:36:08;1.30;;;1.20;;
4957;SDS011;2494;51.872;9.688;2024-02-26T00:38:53;1.40;;;1.30;;
4957;SDS011;2494;51.872;9.688;2024-02-26T00:41:38;1.77;;;1.23;;
4957;SDS011;2494;51.872;9.688;2024-02-26T00:44:25;1.27;;;1.17;;
4957;SDS011;2494;51.872;9.688;2024-02-26T00:47:10;1.70;;;1.40;;
4957;SDS011;2494;51.872;9.688;2024-02-26T00:49:55;1.63;;;1.00;;
4957;SDS011;2494;51.872;9.688;2024-02-26T00:52:41;1.30;;;1.13;;
4957;SDS011;2494;51.872;9.688;2024-02-26T00:55:26;1.23;;;1.13;;
4957;SDS011;2494;51.872;9.688;2024-02-26T00:58:11;1.53;;;1.43;;
4957;SDS011;2494;51.872;9.688;2024-02-26T01:00:57;1.33;;;1.23;;
4957;SDS011;2494;51.872;9.688;2024-02-26T01:03:42;1.40;;;1.20;;
4957;SDS011;2494;51.872;9.688;2024-02-26T01:06:28;2.70;;;2.00;;
4957;SDS011;2494;51.872;9.688;2024-02-26T01:09:13;1.50;;;1.40;;
4957;SDS011;2494;51.872;9.688;2024-02-26T01:12:00;1.63;;;1.40;;
4957;SDS011;2494;51.872;9.688;2024-02-26T01:14:46;1.20;;;1.10;;
4957;SDS011;2494;51.872;9.688;2024-02-26T01:17:34;1.63;;;1.53;;
4957;SDS011;2494;51.872;9.688;2024-02-26T01:20:20;1.37;;;1.17;;
4957;SDS011;2494;51.872;9.688;2024-02-26T01:23:06;1.77;;;1.20;;
4957;SDS011;2494;51.872;9.688;2024-02-26T01:25:51;1.30;;;1.10;;
4957;SDS011;2494;51.872;9.688;2024-02-26T01:28:36;1.30;;;1.20;;
4957;SDS011;2494;51.872;9.688;2024-02-26T01:31:21;1.57;;;1.20;;
4957;SDS011;2494;51.872;9.688;2024-02-26T01:34:09;1.30;;;0.90;;
4957;SDS011;2494;51.872;9.688;2024-02-26T01:36:54;1.10;;;1.00;;
4957;SDS011;2494;51.872;9.688;2024-02-26T01:39:40;1.40;;;1.30;;
4957;SDS011;2494;51.872;9.688;2024-02-26T01:42:26;1.50;;;1.40;;
4957;SDS011;2494;51.872;9.688;2024-02-26T01:45:12;0.97;;;0.90;;
4957;SDS011;2494;51.872;9.688;2024-02-26T01:48:04;1.57;;;1.10;;
4957;SDS011;2494;51.872;9.688;2024-02-26T01:50:56;2.00;;;1.40;;
4957;SDS011;2494;51.872;9.688;2024-02-26T01:53:43;1.30;;;1.20;;
4957;SDS011;2494;51.872;9.688;2024-02-26T01:56:28;1.30;;;1.20;;
4957;SDS011;2494;51.872;9.688;2024-02-26T01:59:15;1.53;;;1.43;;
4957;SDS011;2494;51.872;9.688;2024-02-26T02:02:01;1.40;;;1.30;;
4957;SDS011;2494;51.872;9.688;2024-02-26T02:04:49;1.23;;;1.13;;
4957;SDS011;2494;51.872;9.688;2024-02-26T02:07:35;1.30;;;1.20;;
4957;SDS011;2494;51.872;9.688;2024-02-26T02:10:21;1.70;;;1.37;;
4957;SDS011;2494;51.872;9.688;2024-02-26T02:13:09;1.17;;;1.00;;
4957;SDS011;2494;51.872;9.688;2024-02-26T02:15:54;1.50;;;1.40;;
4957;SDS011;2494;51.872;9.688;2024-02-26T02:18:39;1.17;;;1.07;;
4957;SDS011;2494;51.872;9.688;2024-02-26T02:21:25;2.03;;;1.93;;
4957;SDS011;2494;51.872;9.688;2024-02-26T02:24:10;1.27;;;1.17;;
4957;SDS011;2494;51.872;9.688;2024-02-26T02:26:55;3.27;;;1.67;;
4957;SDS011;2494;51.872;9.688;2024-02-26T02:29:40;2.00;;;1.60;;
4957;SDS011;2494;51.872;9.688;2024-02-26T02:32:25;2.33;;;1.70;;
4957;SDS011;2494;51.872;9.688;2024-02-26T02:35:11;2.37;;;1.50;;
4957;SDS011;2494;51.872;9.688;2024-02-26T02:37:57;1.90;;;1.67;;
4957;SDS011;2494;51.872;9.688;2024-02-26T02:40:42;1.60;;;1.50;;
4957;SDS011;2494;51.872;9.688;2024-02-26T02:43:27;1.63;;;1.27;;
4957;SDS011;2494;51.872;9.688;2024-02-26T02:46:12;2.50;;;1.70;;
4957;SDS011;2494;51.872;9.688;2024-02-26T02:48:57;2.53;;;1.47;;
4957;SDS011;2494;51.872;9.688;2024-02-26T02:51:42;1.60;;;1.50;;
4957;SDS011;2494;51.872;9.688;2024-02-26T02:54:28;1.93;;;1.37;;
4957;SDS011;2494;51.872;9.688;2024-02-26T02:57:13;1.30;;;1.20;;
4957;SDS011;2494;51.872;9.688;2024-02-26T02:59:58;1.20;;;1.10;;
4957;SDS011;2494;51.872;9.688;2024-02-26T03:02:43;1.00;;;0.93;;
4957;SDS011;2494;51.872;9.688;2024-02-26T03:05:28;1.40;;;1.10;;
4957;SDS011;2494;51.872;9.688;2024-02-26T03:08:13;1.40;;;1.30;;
4957;SDS011;2494;51.872;9.688;2024-02-26T03:11:00;1.30;;;1.20;;
4957;SDS011;2494;51.872;9.688;2024-02-26T03:13:45;1.60;;;1.20;;
4957;SDS011;2494;51.872;9.688;2024-02-26T03:16:30;1.40;;;1.30;;
4957;SDS011;2494;51.872;9.688;2024-02-26T03:19:15;2.17;;;1.10;;
4957;SDS011;2494;51.872;9.688;2024-02-26T03:22:00;1.90;;;1.40;;
4957;SDS011;2494;51.872;9.688;2024-02-26T03:24:46;1.20;;;1.10;;
4957;SDS011;2494;51.872;9.688;2024-02-26T03:27:32;2.37;;;1.10;;
4957;SDS011;2494;51.872;9.688;2024-02-26T03:30:17;1.20;;;1.10;;
4957;SDS011;2494;51.872;9.688;2024-02-26T03:33:02;1.30;;;1.20;;
4957;SDS011;2494;51.872;9.688;2024-02-26T03:35:47;1.30;;;1.20;;
4957;SDS011;2494;51.872;9.688;2024-02-26T03:38:32;4.87;;;2.03;;
4957;SDS011;2494;51.872;9.688;2024-02-26T03:41:17;1.77;;;1.50;;
4957;SDS011;2494;51.872;9.688;2024-02-26T03:44:04;1.63;;;1.20;;
4957;SDS011;2494;51.872;9.688;2024-02-26T03:46:49;0.97;;;0.90;;
4957;SDS011;2494;51.872;9.688;2024-02-26T03:49:34;1.30;;;1.20;;
4957;SDS011;2494;51.872;9.688;2024-02-26T03:52:19;1.43;;;1.33;;
4957;SDS011;2494;51.872;9.688;2024-02-26T03:55:04;2.43;;;1.67;;
4957;SDS011;2494;51.872;9.688;2024-02-26T03:57:49;3.57;;;2.03;;
4957;SDS011;2494;51.872;9.688;2024-02-26T04:00:36;1.97;;;1.77;;
4957;SDS011;2494;51.872;9.688;2024-02-26T04:03:21;1.63;;;1.53;;
4957;SDS011;2494;51.872;9.688;2024-02-26T04:06:08;1.70;;;1.37;;
4957;SDS011;2494;51.872;9.688;2024-02-26T04:08:53;3.83;;;1.30;;
4957;SDS011;2494;51.872;9.688;2024-02-26T04:11:38;1.50;;;1.40;;
4957;SDS011;2494;51.872;9.688;2024-02-26T04:14:23;1.37;;;1.27;;
4957;SDS011;2494;51.872;9.688;2024-02-26T04:17:09;2.07;;;1.97;;
4957;SDS011;2494;51.872;9.688;2024-02-26T04:19:54;1.77;;;1.30;;
4957;SDS011;2494;51.872;9.688;2024-02-26T04:22:39;1.90;;;1.40;;
4957;SDS011;2494;51.872;9.688;2024-02-26T04:25:24;1.20;;;1.10;;
4957;SDS011;2494;51.872;9.688;2024-02-26T04:28:09;1.53;;;1.30;;
4957;SDS011;2494;51.872;9.688;2024-02-26T04:30:54;1.30;;;1.20;;
4957;SDS011;2494;51.872;9.688;2024-02-26T04:33:40;1.33;;;1.20;;
4957;SDS011;2494;51.872;9.688;2024-02-26T04:36:26;2.00;;;1.80;;
4957;SDS011;2494;51.872;9.688;2024-02-26T04:39:11;1.93;;;1.40;;
4957;SDS011;2494;51.872;9.688;2024-02-26T04:41:56;3.03;;;2.40;;
4957;SDS011;2494;51.872;9.688;2024-02-26T04:44:41;1.83;;;1.73;;
4957;SDS011;2494;51.872;9.688;2024-02-26T04:47:26;2.13;;;1.80;;
4957;SDS011;2494;51.872;9.688;2024-02-26T04:50:13;1.97;;;1.87;;
4957;SDS011;2494;51.872;9.688;2024-02-26T04:52:58;1.80;;;1.70;;
4957;SDS011;2494;51.872;9.688;2024-02-26T04:55:43;4.20;;;1.70;;
4957;SDS011;2494;51.872;9.688;2024-02-26T04:58:28;2.17;;;1.70;;
4957;SDS011;2494;51.872;9.688;2024-02-26T05:01:13;1.60;;;1.50;;
4957;SDS011;2494;51.872;9.688;2024-02-26T05:04:00;1.70;;;1.20;;
4957;SDS011;2494;51.872;9.688;2024-02-26T05:06:46;1.50;;;1.40;;
4957;SDS011;2494;51.872;9.688;2024-02-26T05:09:31;1.40;;;1.30;;
4957;SDS011;2494;51.872;9.688;2024-02-26T05:12:16;1.37;;;1.27;;
4957;SDS011;2494;51.872;9.688;2024-02-26T05:15:01;1.67;;;1.57;;
4957;SDS011;2494;51.872;9.688;2024-02-26T05:17:46;1.77;;;1.20;;
4957;SDS011;2494;51.872;9.688;2024-02-26T05:20:31;1.83;;;1.50;;
4957;SDS011;2494;51.872;9.688;2024-02-26T05:23:20;1.57;;;1.40;;
4957;SDS011;2494;51.872;9.688;2024-02-26T05:26:05;1.50;;;1.40;;
4957;SDS011;2494;51.872;9.688;2024-02-26T05:28:50;1.50;;;1.40;;
4957;SDS011;2494;51.872;9.688;2024-02-26T05:31:35;1.90;;;1.80;;
4957;SDS011;2494;51.872;9.688;2024-02-26T05:34:20;1.90;;;1.60;;
4957;SDS011;2494;51.872;9.688;2024-02-26T05:37:05;1.70;;;1.60;;
4957;SDS011;2494;51.872;9.688;2024-02-26T05:39:52;1.80;;;1.70;;
4957;SDS011;2494;51.872;9.688;2024-02-26T05:42:37;1.80;;;1.60;;
4957;SDS011;2494;51.872;9.688;2024-02-26T05:45:23;2.60;;;1.70;;
4957;SDS011;2494;51.872;9.688;2024-02-26T05:48:08;1.73;;;1.53;;
4957;SDS011;2494;51.872;9.688;2024-02-26T05:50:53;1.67;;;1.57;;
4957;SDS011;2494;51.872;9.688;2024-02-26T05:53:39;4.47;;;1.63;;
4957;SDS011;2494;51.872;9.688;2024-02-26T05:56:25;1.93;;;1.73;;
4957;SDS011;2494;51.872;9.688;2024-02-26T05:59:10;1.77;;;1.63;;
4957;SDS011;2494;51.872;9.688;2024-02-26T06:01:56;1.97;;;1.43;;
4957;SDS011;2494;51.872;9.688;2024-02-26T06:04:41;1.80;;;1.63;;
4957;SDS011;2494;51.872;9.688;2024-02-26T06:07:26;3.67;;;1.33;;
4957;SDS011;2494;51.872;9.688;2024-02-26T06:10:11;1.50;;;1.40;;
4957;SDS011;2494;51.872;9.688;2024-02-26T06:13:00;2.40;;;2.20;;
4957;SDS011;2494;51.872;9.688;2024-02-26T06:15:44;2.03;;;1.50;;
4957;SDS011;2494;51.872;9.688;2024-02-26T06:18:30;1.97;;;1.57;;
4957;SDS011;2494;51.872;9.688;2024-02-26T06:21:15;1.67;;;1.40;;
4957;SDS011;2494;51.872;9.688;2024-02-26T06:24:01;1.90;;;1.70;;
4957;SDS011;2494;51.872;9.688;2024-02-26T06:26:46;1.70;;;1.57;;
4957;SDS011;2494;51.872;9.688;2024-02-26T06:29:33;1.50;;;1.40;;
4957;SDS011;2494;51.872;9.688;2024-02-26T06:32:18;2.20;;;2.10;;
4957;SDS011;2494;51.872;9.688;2024-02-26T06:35:03;1.83;;;1.73;;
4957;SDS011;2494;51.872;9.688;2024-02-26T06:37:51;4.40;;;2.10;;
4957;SDS011;2494;51.872;9.688;2024-02-26T06:40:37;3.80;;;2.63;;
4957;SDS011;2494;51.872;9.688;2024-02-26T06:43:22;1.93;;;1.60;;
4957;SDS011;2494;51.872;9.688;2024-02-26T06:46:09;2.23;;;1.50;;
4957;SDS011;2494;51.872;9.688;2024-02-26T06:48:53;2.40;;;1.27;;
4957;SDS011;2494;51.872;9.688;2024-02-26T06:51:39;1.83;;;1.40;;
4957;SDS011;2494;51.872;9.688;2024-02-26T06:54:24;1.57;;;1.47;;
4957;SDS011;2494;51.872;9.688;2024-02-26T06:57:09;5.00;;;3.30;;
4957;SDS011;2494;51.872;9.688;2024-02-26T06:59:55;4.17;;;3.20;;
4957;SDS011;2494;51.872;9.688;2024-02-26T07:02:43;4.50;;;4.20;;
4957;SDS011;2494;51.872;9.688;2024-02-26T07:05:28;2.80;;;2.50;;
4957;SDS011;2494;51.872;9.688;2024-02-26T07:08:13;2.57;;;2.10;;
4957;SDS011;2494;51.872;9.688;2024-02-26T07:10:58;2.50;;;2.30;;
4957;SDS011;2494;51.872;9.688;2024-02-26T07:13:43;4.60;;;3.30;;
4957;SDS011;2494;51.872;9.688;2024-02-26T07:16:28;2.93;;;2.73;;
4957;SDS011;2494;51.872;9.688;2024-02-26T07:19:14;3.43;;;2.73;;
4957;SDS011;2494;51.872;9.688;2024-02-26T07:21:59;1.90;;;1.80;;
4957;SDS011;2494;51.872;9.688;2024-02-26T07:24:45;2.60;;;2.40;;
4957;SDS011;2494;51.872;9.688;2024-02-26T07:27:30;4.47;;;1.67;;
4957;SDS011;2494;51.872;9.688;2024-02-26T07:30:15;2.93;;;2.10;;
4957;SDS011;2494;51.872;9.688;2024-02-26T07:33:01;9.20;;;4.77;;
4957;SDS011;2494;51.872;9.688;2024-02-26T07:35:47;4.93;;;2.90;;
4957;SDS011;2494;51.872;9.688;2024-02-26T07:38:32;8.67;;;5.43;;
4957;SDS011;2494;51.872;9.688;2024-02-26T07:41:17;6.30;;;3.17;;
4957;SDS011;2494;51.872;9.688;2024-02-26T07:44:02;3.07;;;2.73;;
4957;SDS011;2494;51.872;9.688;2024-02-26T07:46:48;4.83;;;3.70;;
4957;SDS011;2494;51.872;9.688;2024-02-26T07:49:33;3.13;;;2.50;;
4957;SDS011;2494;51.872;9.688;2024-02-26T07:52:19;3.00;;;2.33;;
4957;SDS011;2494;51.872;9.688;2024-02-26T07:55:05;3.90;;;2.30;;
4957;SDS011;2494;51.872;9.688;2024-02-26T07:57:50;6.23;;;2.57;;
4957;SDS011;2494;51.872;9.688;2024-02-26T08:00:35;2.77;;;2.53;;
4957;SDS011;2494;51.872;9.688;2024-02-26T08:03:21;4.60;;;2.40;;
4957;SDS011;2494;51.872;9.688;2024-02-26T08:06:07;2.30;;;2.07;;
4957;SDS011;2494;51.872;9.688;2024-02-26T08:08:55;4.83;;;2.20;;
4957;SDS011;2494;51.872;9.688;2024-02-26T08:11:40;4.73;;;2.70;;
4957;SDS011;2494;51.872;9.688;2024-02-26T08:14:25;2.90;;;2.70;;
4957;SDS011;2494;51.872;9.688;2024-02-26T08:17:10;2.20;;;2.00;;
4957;SDS011;2494;51.872;9.688;2024-02-26T08:19:55;3.10;;;2.23;;
4957;SDS011;2494;51.872;9.688;2024-02-26T08:22:41;2.67;;;2.00;;
4957;SDS011;2494;51.872;9.688;2024-02-26T08:25:27;3.10;;;2.70;;
4957;SDS011;2494;51.872;9.688;2024-02-26T08:28:12;2.30;;;1.87;;
4957;SDS011;2494;51.872;9.688;2024-02-26T08:30:58;3.17;;;2.33;;
4957;SDS011;2494;51.872;9.688;2024-02-26T08:33:43;2.97;;;2.40;;
4957;SDS011;2494;51.872;9.688;2024-02-26T08:36:28;3.00;;;2.70;;
4957;SDS011;2494;51.872;9.688;2024-02-26T08:39:13;2.93;;;2.63;;
4957;SDS011;2494;51.872;9.688;2024-02-26T08:41:59;3.83;;;3.53;;
4957;SDS011;2494;51.872;9.688;2024-02-26T08:44:44;3.00;;;2.80;;
4957;SDS011;2494;51.872;9.688;2024-02-26T08:47:29;2.90;;;2.03;;
4957;SDS011;2494;51.872;9.688;2024-02-26T08:50:15;2.50;;;2.30;;
4957;SDS011;2494;51.872;9.688;2024-02-26T08:53:00;2.33;;;2.13;;
4957;SDS011;2494;51.872;9.688;2024-02-26T08:55:45;3.00;;;2.80;;
4957;SDS011;2494;51.872;9.688;2024-02-26T08:58:31;3.47;;;2.70;;
4957;SDS011;2494;51.872;9.688;2024-02-26T09:01:17;2.97;;;2.67;;
4957;SDS011;2494;51.872;9.688;2024-02-26T09:04:03;2.00;;;1.83;;
4957;SDS011;2494;51.872;9.688;2024-02-26T09:06:48;4.00;;;2.83;;
4957;SDS011;2494;51.872;9.688;2024-02-26T09:09:34;2.50;;;2.30;;
4957;SDS011;2494;51.872;9.688;2024-02-26T09:12:19;3.33;;;2.90;;
4957;SDS011;2494;51.872;9.688;2024-02-26T09:15:07;3.97;;;3.23;;
4957;SDS011;2494;51.872;9.688;2024-02-26T09:17:52;2.80;;;2.57;;
4957;SDS011;2494;51.872;9.688;2024-02-26T09:20:37;4.37;;;3.50;;
4957;SDS011;2494;51.872;9.688;2024-02-26T09:23:23;5.20;;;3.17;;
4957;SDS011;2494;51.872;9.688;2024-02-26T09:26:08;3.10;;;2.80;;
4957;SDS011;2494;51.872;9.688;2024-02-26T09:28:53;3.40;;;3.00;;
4957;SDS011;2494;51.872;9.688;2024-02-26T09:31:39;3.33;;;3.03;;
4957;SDS011;2494;51.872;9.688;2024-02-26T09:34:25;3.50;;;3.20;;
4957;SDS011;2494;51.872;9.688;2024-02-26T09:37:09;3.43;;;3.17;;
4957;SDS011;2494;51.872;9.688;2024-02-26T09:39:54;5.93;;;3.80;;
4957;SDS011;2494;51.872;9.688;2024-02-26T09:42:41;3.53;;;3.23;;
4957;SDS011;2494;51.872;9.688;2024-02-26T09:45:28;3.30;;;3.00;;
4957;SDS011;2494;51.872;9.688;2024-02-26T09:48:14;3.80;;;3.50;;
4957;SDS011;2494;51.872;9.688;2024-02-26T09:51:01;3.33;;;3.03;;
4957;SDS011;2494;51.872;9.688;2024-02-26T09:53:46;3.73;;;3.03;;
4957;SDS011;2494;51.872;9.688;2024-02-26T09:56:32;4.37;;;3.50;;
4957;SDS011;2494;51.872;9.688;2024-02-26T09:59:17;4.93;;;4.43;;
4957;SDS011;2494;51.872;9.688;2024-02-26T10:02:03;4.70;;;4.30;;
4957;SDS011;2494;51.872;9.688;2024-02-26T10:04:49;5.60;;;5.20;;
4957;SDS011;2494;51.872;9.688;2024-02-26T10:07:37;6.00;;;4.03;;
4957;SDS011;2494;51.872;9.688;2024-02-26T10:10:23;4.03;;;3.73;;
4957;SDS011;2494;51.872;9.688;2024-02-26T10:13:08;4.10;;;3.57;;
4957;SDS011;2494;51.872;9.688;2024-02-26T10:15:55;5.47;;;4.03;;
4957;SDS011;2494;51.872;9.688;2024-02-26T10:18:47;5.00;;;4.60;;
4957;SDS011;2494;51.872;9.688;2024-02-26T10:21:33;4.13;;;3.07;;
4957;SDS011;2494;51.872;9.688;2024-02-26T10:24:18;4.60;;;4.20;;
4957;SDS011;2494;51.872;9.688;2024-02-26T10:27:03;3.90;;;3.60;;
4957;SDS011;2494;51.872;9.688;2024-02-26T10:29:49;4.70;;;4.30;;
4957;SDS011;2494;51.872;9.688;2024-02-26T10:32:35;5.20;;;4.70;;
4957;SDS011;2494;51.872;9.688;2024-02-26T10:35:22;4.20;;;3.90;;
4957;SDS011;2494;51.872;9.688;2024-02-26T10:38:08;5.27;;;4.77;;
4957;SDS011;2494;51.872;9.688;2024-02-26T10:40:53;8.20;;;4.77;;
4957;SDS011;2494;51.872;9.688;2024-02-26T10:43:39;5.33;;;4.30;;
4957;SDS011;2494;51.872;9.688;2024-02-26T10:46:25;5.70;;;5.30;;
4957;SDS011;2494;51.872;9.688;2024-02-26T10:49:13;4.50;;;4.10;;
4957;SDS011;2494;51.872;9.688;2024-02-26T10:51:58;8.30;;;5.17;;
4957;SDS011;2494;51.872;9.688;2024-02-26T10:54:45;6.00;;;4.97;;
4957;SDS011;2494;51.872;9.688;2024-02-26T10:57:33;5.77;;;5.10;;
4957;SDS011;2494;51.872;9.688;2024-02-26T11:00:21;5.23;;;4.73;;
4957;SDS011;2494;51.872;9.688;2024-02-26T11:03:06;6.60;;;5.43;;
4957;SDS011;2494;51.872;9.688;2024-02-26T11:05:53;5.90;;;5.40;;
4957;SDS011;2494;51.872;9.688;2024-02-26T11:08:38;6.43;;;5.40;;
4957;SDS011;2494;51.872;9.688;2024-02-26T11:11:25;4.40;;;4.00;;
4957;SDS011;2494;51.872;9.688;2024-02-26T11:14:11;4.73;;;4.17;;
4957;SDS011;2494;51.872;9.688;2024-02-26T11:16:57;7.60;;;5.27;;
4957;SDS011;2494;51.872;9.688;2024-02-26T11:19:42;5.13;;;4.30;;
4957;SDS011;2494;51.872;9.688;2024-02-26T11:22:28;6.27;;;5.67;;
4957;SDS011;2494;51.872;9.688;2024-02-26T11:25:13;6.17;;;5.17;;
4957;SDS011;2494;51.872;9.688;2024-02-26T11:28:03;6.20;;;4.37;;
4957;SDS011;2494;51.872;9.688;2024-02-26T11:30:49;5.37;;;4.83;;
4957;SDS011;2494;51.872;9.688;2024-02-26T11:33:35;5.87;;;4.67;;
4957;SDS011;2494;51.872;9.688;2024-02-26T11:36:20;6.33;;;4.77;;
4957;SDS011;2494;51.872;9.688;2024-02-26T11:39:06;7.40;;;4.67;;
4957;SDS011;2494;51.872;9.688;2024-02-26T11:41:51;4.80;;;4.40;;
4957;SDS011;2494;51.872;9.688;2024-02-26T11:44:37;4.93;;;4.53;;
4957;SDS011;2494;51.872;9.688;2024-02-26T11:47:22;5.90;;;5.40;;
4957;SDS011;2494;51.872;9.688;2024-02-26T11:53:19;6.80;;;4.50;;
4957;SDS011;2494;51.872;9.688;2024-02-26T11:56:19;6.40;;;4.73;;
4957;SDS011;2494;51.872;9.688;2024-02-26T11:59:08;5.90;;;4.70;;
4957;SDS011;2494;51.872;9.688;2024-02-26T12:01:56;6.60;;;5.17;;
4957;SDS011;2494;51.872;9.688;2024-02-26T12:04:41;7.27;;;4.60;;
4957;SDS011;2494;51.872;9.688;2024-02-26T12:07:26;5.10;;;4.63;;
4957;SDS011;2494;51.872;9.688;2024-02-26T12:13:18;5.00;;;3.60;;
4957;SDS011;2494;51.872;9.688;2024-02-26T12:16:04;6.37;;;4.40;;
4957;SDS011;2494;51.872;9.688;2024-02-26T12:18:50;4.00;;;3.70;;
4957;SDS011;2494;51.872;9.688;2024-02-26T12:21:36;4.13;;;3.60;;
4957;SDS011;2494;51.872;9.688;2024-02-26T12:24:21;3.50;;;3.17;;
4957;SDS011;2494;51.872;9.688;2024-02-26T12:27:07;3.63;;;3.33;;
4957;SDS011;2494;51.872;9.688;2024-02-26T12:29:52;4.80;;;4.20;;
4957;SDS011;2494;51.872;9.688;2024-02-26T12:32:38;6.53;;;3.73;;
4957;SDS011;2494;51.872;9.688;2024-02-26T12:35:24;4.67;;;4.27;;
4957;SDS011;2494;51.872;9.688;2024-02-26T12:38:09;5.73;;;4.20;;
4957;SDS011;2494;51.872;9.688;2024-02-26T12:40:57;6.30;;;3.80;;
4957;SDS011;2494;51.872;9.688;2024-02-26T12:43:42;4.20;;;3.43;;
4957;SDS011;2494;51.872;9.688;2024-02-26T12:46:27;4.80;;;4.33;;
4957;SDS011;2494;51.872;9.688;2024-02-26T12:49:14;3.90;;;3.60;;
4957;SDS011;2494;51.872;9.688;2024-02-26T12:52:01;4.73;;;4.20;;
4957;SDS011;2494;51.872;9.688;2024-02-26T12:54:46;5.07;;;4.27;;
4957;SDS011;2494;51.872;9.688;2024-02-26T12:57:31;5.00;;;4.10;;
4957;SDS011;2494;51.872;9.688;2024-02-26T13:00:17;4.80;;;3.30;;
4957;SDS011;2494;51.872;9.688;2024-02-26T13:03:03;4.83;;;4.10;;
4957;SDS011;2494;51.872;9.688;2024-02-26T13:05:49;4.73;;;4.37;;
4957;SDS011;2494;51.872;9.688;2024-02-26T13:08:36;7.13;;;3.50;;
4957;SDS011;2494;51.872;9.688;2024-02-26T13:11:21;3.90;;;3.30;;
4957;SDS011;2494;51.872;9.688;2024-02-26T13:14:06;3.77;;;3.10;;
4957;SDS011;2494;51.872;9.688;2024-02-26T13:16:54;5.13;;;4.10;;
4957;SDS011;2494;51.872;9.688;2024-02-26T13:19:48;3.77;;;3.40;;
4957;SDS011;2494;51.872;9.688;2024-02-26T13:22:33;4.40;;;4.00;;
4957;SDS011;2494;51.872;9.688;2024-02-26T13:25:21;3.70;;;3.40;;
4957;SDS011;2494;51.872;9.688;2024-02-26T13:28:07;3.60;;;3.30;;
4957;SDS011;2494;51.872;9.688;2024-02-26T13:30:52;10.43;;;3.70;;
4957;SDS011;2494;51.872;9.688;2024-02-26T13:33:40;5.17;;;3.83;;
4957;SDS011;2494;51.872;9.688;2024-02-26T13:36:25;4.93;;;3.57;;
4957;SDS011;2494;51.872;9.688;2024-02-26T13:39:10;5.87;;;4.20;;
4957;SDS011;2494;51.872;9.688;2024-02-26T13:42:07;4.07;;;3.60;;
4957;SDS011;2494;51.872;9.688;2024-02-26T13:44:55;4.43;;;3.53;;
4957;SDS011;2494;51.872;9.688;2024-02-26T13:47:40;2.90;;;2.53;;
4957;SDS011;2494;51.872;9.688;2024-02-26T13:50:25;4.63;;;4.10;;
4957;SDS011;2494;51.872;9.688;2024-02-26T13:53:10;4.20;;;3.70;;
4957;SDS011;2494;51.872;9.688;2024-02-26T13:55:56;3.50;;;3.20;;
4957;SDS011;2494;51.872;9.688;2024-02-26T13:58:43;3.70;;;3.40;;
4957;SDS011;2494;51.872;9.688;2024-02-26T14:01:29;5.10;;;4.13;;
4957;SDS011;2494;51.872;9.688;2024-02-26T14:04:14;4.40;;;4.00;;
4957;SDS011;2494;51.872;9.688;2024-02-26T14:07:00;4.63;;;4.20;;
4957;SDS011;2494;51.872;9.688;2024-02-26T14:09:45;6.67;;;4.77;;
4957;SDS011;2494;51.872;9.688;2024-02-26T14:12:30;8.80;;;4.60;;
4957;SDS011;2494;51.872;9.688;2024-02-26T14:15:17;5.20;;;4.70;;
4957;SDS011;2494;51.872;9.688;2024-02-26T14:18:02;5.37;;;4.80;;
4957;SDS011;2494;51.872;9.688;2024-02-26T14:20:48;5.10;;;4.60;;
4957;SDS011;2494;51.872;9.688;2024-02-26T14:23:33;5.10;;;4.60;;
4957;SDS011;2494;51.872;9.688;2024-02-26T14:26:18;7.80;;;4.77;;
4957;SDS011;2494;51.872;9.688;2024-02-26T14:29:04;4.53;;;4.10;;
4957;SDS011;2494;51.872;9.688;2024-02-26T14:31:52;4.93;;;4.00;;
4957;SDS011;2494;51.872;9.688;2024-02-26T14:34:37;5.70;;;5.10;;
4957;SDS011;2494;51.872;9.688;2024-02-26T14:37:22;4.63;;;4.30;;
4957;SDS011;2494;51.872;9.688;2024-02-26T14:40:07;5.33;;;4.27;;
4957;SDS011;2494;51.872;9.688;2024-02-26T14:42:53;5.03;;;4.63;;
4957;SDS011;2494;51.872;9.688;2024-02-26T14:45:38;6.00;;;4.37;;
4957;SDS011;2494;51.872;9.688;2024-02-26T14:48:25;5.53;;;4.33;;
4957;SDS011;2494;51.872;9.688;2024-02-26T14:51:09;6.63;;;4.57;;
4957;SDS011;2494;51.872;9.688;2024-02-26T14:53:54;6.30;;;5.03;;
4957;SDS011;2494;51.872;9.688;2024-02-26T14:56:40;5.90;;;4.23;;
4957;SDS011;2494;51.872;9.688;2024-02-26T14:59:25;5.90;;;4.17;;
4957;SDS011;2494;51.872;9.688;2024-02-26T15:02:10;5.07;;;4.57;;
4957;SDS011;2494;51.872;9.688;2024-02-26T15:04:57;5.77;;;5.27;;
4957;SDS011;2494;51.872;9.688;2024-02-26T15:07:42;7.00;;;4.30;;
4957;SDS011;2494;51.872;9.688;2024-02-26T15:10:27;5.37;;;4.10;;
4957;SDS011;2494;51.872;9.688;2024-02-26T15:13:13;4.93;;;4.30;;
4957;SDS011;2494;51.872;9.688;2024-02-26T15:15:59;5.53;;;4.90;;
4957;SDS011;2494;51.872;9.688;2024-02-26T15:18:44;5.40;;;4.90;;
4957;SDS011;2494;51.872;9.688;2024-02-26T15:21:31;4.87;;;4.33;;
4957;SDS011;2494;51.872;9.688;2024-02-26T15:24:16;7.70;;;4.00;;
4957;SDS011;2494;51.872;9.688;2024-02-26T15:27:02;3.80;;;3.43;;
4957;SDS011;2494;51.872;9.688;2024-02-26T15:29:47;8.80;;;5.60;;
4957;SDS011;2494;51.872;9.688;2024-02-26T15:32:33;6.50;;;4.67;;
4957;SDS011;2494;51.872;9.688;2024-02-26T15:35:17;5.80;;;4.50;;
4957;SDS011;2494;51.872;9.688;2024-02-26T15:38:05;5.00;;;4.30;;
4957;SDS011;2494;51.872;9.688;2024-02-26T15:40:50;5.00;;;4.50;;
4957;SDS011;2494;51.872;9.688;2024-02-26T15:43:35;3.67;;;3.37;;
4957;SDS011;2494;51.872;9.688;2024-02-26T15:46:20;7.50;;;4.00;;
4957;SDS011;2494;51.872;9.688;2024-02-26T15:49:05;6.00;;;3.93;;
4957;SDS011;2494;51.872;9.688;2024-02-26T15:51:51;8.90;;;4.40;;
4957;SDS011;2494;51.872;9.688;2024-02-26T15:54:39;5.17;;;4.20;;
4957;SDS011;2494;51.872;9.688;2024-02-26T15:57:24;5.10;;;3.53;;
4957;SDS011;2494;51.872;9.688;2024-02-26T16:00:10;7.20;;;3.60;;
4957;SDS011;2494;51.872;9.688;2024-02-26T16:02:55;5.50;;;3.83;;
4957;SDS011;2494;51.872;9.688;2024-02-26T16:05:40;7.03;;;4.73;;
4957;SDS011;2494;51.872;9.688;2024-02-26T16:08:25;6.03;;;4.27;;
4957;SDS011;2494;51.872;9.688;2024-02-26T16:11:12;6.03;;;4.23;;
4957;SDS011;2494;51.872;9.688;2024-02-26T16:13:58;5.33;;;4.10;;
4957;SDS011;2494;51.872;9.688;2024-02-26T16:16:47;4.23;;;3.80;;
4957;SDS011;2494;51.872;9.688;2024-02-26T16:19:34;6.90;;;4.47;;
4957;SDS011;2494;51.872;9.688;2024-02-26T16:22:19;4.63;;;3.53;;
4957;SDS011;2494;51.872;9.688;2024-02-26T16:25:04;9.40;;;4.20;;
4957;SDS011;2494;51.872;9.688;2024-02-26T16:27:51;3.80;;;3.50;;
4957;SDS011;2494;51.872;9.688;2024-02-26T16:30:36;6.30;;;4.30;;
4957;SDS011;2494;51.872;9.688;2024-02-26T16:33:21;5.93;;;3.03;;
4957;SDS011;2494;51.872;9.688;2024-02-26T16:36:06;8.33;;;4.97;;
4957;SDS011;2494;51.872;9.688;2024-02-26T16:38:54;4.03;;;3.67;;
4957;SDS011;2494;51.872;9.688;2024-02-26T16:41:38;6.60;;;4.00;;
4957;SDS011;2494;51.872;9.688;2024-02-26T16:44:25;5.20;;;4.70;;
4957;SDS011;2494;51.872;9.688;2024-02-26T16:47:11;5.80;;;5.03;;
4957;SDS011;2494;51.872;9.688;2024-02-26T16:49:56;6.13;;;5.30;;
4957;SDS011;2494;51.872;9.688;2024-02-26T16:52:41;4.80;;;4.03;;
4957;SDS011;2494;51.872;9.688;2024-02-26T16:55:26;11.43;;;5.20;;
4957;SDS011;2494;51.872;9.688;2024-02-26T16:58:11;4.70;;;4.20;;
4957;SDS011;2494;51.872;9.688;2024-02-26T17:00:58;6.27;;;5.00;;
4957;SDS011;2494;51.872;9.688;2024-02-26T17:03:44;9.33;;;5.07;;
4957;SDS011;2494;51.872;9.688;2024-02-26T17:06:29;9.07;;;6.40;;
4957;SDS011;2494;51.872;9.688;2024-02-26T17:09:14;7.70;;;6.07;;
4957;SDS011;2494;51.872;9.688;2024-02-26T17:11:59;8.20;;;5.30;;
4957;SDS011;2494;51.872;9.688;2024-02-26T17:14:44;10.67;;;6.13;;